Time;durP1;ratioP1;P1;durP2;ratioP2;P2;SDS_P1;SDS_P2;PMS_P1;PMS_P2;Temp;Humidity;BMP_temperature;BMP_pressure;BME280_temperature;BME280_humidity;BME280_pressure;Samples;Min_cycle;Max_cycle;Signal;HPM_P1;HPM_P2
2023/04/03 00:01:19;;;;;;;0.50;0.50;;;;;;;6.33;62.84;99158.56;4440241;32;33581;-84
2023/04/03 00:03:47;;;;;;;1.17;1.08;;;;;;;6.22;63.33;99161.13;4440196;32;34634;-83
2023/04/03 00:06:15;;;;;;;0.50;0.50;;;;;;;5.85;64.03;99148.84;4439180;32;33652;-83
2023/04/03 00:08:43;;;;;;;0.40;0.40;;;;;;;6.32;62.62;99156.81;4439142;32;33313;-84
2023/04/03 00:11:12;;;;;;;0.60;0.60;;;;;;;6.08;62.46;99163.63;4439141;32;33762;-84
2023/04/03 00:13:40;;;;;;;1.45;0.70;;;;;;;6.48;61.55;99161.22;4439031;32;35369;-84
2023/04/03 00:16:09;;;;;;;0.43;0.43;;;;;;;6.53;61.99;99154.31;4440158;32;34045;-84
2023/04/03 00:18:38;;;;;;;1.08;1.08;;;;;;;6.54;62.49;99153.44;4439925;32;33337;-84
2023/04/03 00:21:07;;;;;;;0.50;0.50;;;;;;;6.68;61.31;99162.97;4439025;32;34671;-84
2023/04/03 00:23:35;;;;;;;4.25;2.15;;;;;;;6.44;61.75;99168.09;4438972;32;34696;-84
2023/04/03 00:26:03;;;;;;;0.60;0.60;;;;;;;6.12;63.27;99173.13;4440087;32;35132;-83
2023/04/03 00:28:31;;;;;;;0.80;0.80;;;;;;;5.93;63.23;99164.41;4440116;32;34099;-85
2023/04/03 00:31:00;;;;;;;2.25;2.15;;;;;;;6.29;61.63;99165.44;4440177;32;34599;-84
2023/04/03 00:33:28;;;;;;;0.50;0.50;;;;;;;6.04;63.33;99170.50;4440005;32;35923;-84
2023/04/03 00:35:56;;;;;;;1.55;1.45;;;;;;;5.89;63.63;99173.88;4440158;32;34438;-84
2023/04/03 00:38:24;;;;;;;1.33;1.27;;;;;;;6.12;63.05;99175.72;4439795;32;33395;-83
2023/04/03 00:40:52;;;;;;;0.40;0.40;;;;;;;6.11;62.92;99168.81;4440069;32;33787;-84
2023/04/03 00:43:23;;;;;;;0.65;0.65;;;;;;;5.89;64.13;99171.28;4439984;32;34934;-83
2023/04/03 00:45:53;;;;;;;1.58;1.48;;;;;;;6.11;63.13;99167.97;4426171;32;33230;-84
2023/04/03 00:48:24;;;;;;;0.60;0.60;;;;;;;5.88;63.46;99166.97;4426448;32;32385;-84
2023/04/03 00:50:52;;;;;;;0.75;0.75;;;;;;;6.03;63.52;99173.09;4440014;32;34889;-84
2023/04/03 00:53:31;;;;;;;1.27;1.05;;;;;;;6.06;62.54;99175.69;4440161;32;35789;-84
2023/04/03 00:56:00;;;;;;;0.62;0.62;;;;;;;6.13;63.15;99169.69;4440313;32;35136;-84
2023/04/03 00:58:49;;;;;;;0.50;0.50;;;;;;;6.17;61.84;99176.59;4438973;32;34373;-81
2023/04/03 01:01:22;;;;;;;0.73;0.73;;;;;;;5.92;62.86;99179.91;4426567;32;34687;-82
2023/04/03 01:03:50;;;;;;;0.90;0.90;;;;;;;5.70;64.06;99172.03;4438754;32;35014;-83
2023/04/03 01:06:23;;;;;;;0.55;0.55;;;;;;;5.83;63.10;99178.97;4440207;32;34066;-83
2023/04/03 01:08:51;;;;;;;0.68;0.68;;;;;;;5.74;63.81;99168.59;4426335;32;32766;-82
2023/04/03 01:11:20;;;;;;;0.40;0.40;;;;;;;5.95;62.37;99172.13;4438866;32;33769;-83
2023/04/03 01:13:49;;;;;;;1.67;1.58;;;;;;;5.92;62.57;99177.31;4440051;32;33855;-82
2023/04/03 01:16:17;;;;;;;1.83;1.73;;;;;;;5.66;63.05;99167.69;4438631;32;34439;-82
2023/04/03 01:18:46;;;;;;;0.90;0.90;;;;;;;5.87;62.38;99175.53;4439814;32;33318;-83
2023/04/03 01:21:26;;;;;;;8.05;2.05;;;;;;;6.10;62.54;99176.56;4438726;32;34604;-84
2023/04/03 01:24:20;;;;;;;0.98;0.98;;;;;;;5.93;62.55;99173.84;4438681;32;35980;-84
2023/04/03 01:26:49;;;;;;;1.02;0.95;;;;;;;5.95;62.05;99172.13;4439740;32;34248;-83
2023/04/03 01:29:17;;;;;;;1.58;1.48;;;;;;;6.25;61.44;99171.47;4439668;32;33475;-83
2023/04/03 01:31:51;;;;;;;0.80;0.80;;;;;;;5.85;62.25;99177.25;4439598;32;33694;-84
2023/04/03 01:34:20;;;;;;;0.77;0.77;;;;;;;5.78;62.66;99175.50;4439681;32;35581;-83
2023/04/03 01:36:50;;;;;;;0.50;0.50;;;;;;;6.11;61.76;99171.41;4425904;32;35165;-83
2023/04/03 01:39:19;;;;;;;0.50;0.50;;;;;;;5.94;61.85;99176.47;4438309;32;34433;-83
2023/04/03 01:41:47;;;;;;;0.50;0.50;;;;;;;5.85;61.71;99173.81;4438731;32;33871;-84
2023/04/03 01:44:16;;;;;;;0.50;0.50;;;;;;;5.96;61.84;99172.19;4438409;32;36039;-83
2023/04/03 01:46:45;;;;;;;2.65;1.23;;;;;;;5.74;62.66;99173.78;4439649;32;34373;-83
2023/04/03 01:49:13;;;;;;;0.50;0.50;;;;;;;5.54;63.10;99183.97;4439633;32;34230;-84
2023/04/03 01:51:41;;;;;;;0.50;0.50;;;;;;;6.12;61.49;99183.47;4438809;32;33817;-83
2023/04/03 01:54:09;;;;;;;1.15;1.15;;;;;;;5.32;63.36;99188.09;4439741;32;34756;-82
2023/04/03 01:56:38;;;;;;;0.70;0.70;;;;;;;5.48;63.33;99187.34;4439487;32;34127;-82
2023/04/03 01:59:07;;;;;;;0.50;0.50;;;;;;;5.26;64.49;99180.31;4438749;32;32528;-82
2023/04/03 02:01:35;;;;;;;0.68;0.68;;;;;;;5.82;63.25;99190.19;4439736;32;33812;-83
2023/04/03 02:04:04;;;;;;;0.45;0.45;;;;;;;5.34;64.51;99193.28;4438399;32;35027;-82
2023/04/03 02:06:32;;;;;;;0.50;0.50;;;;;;;5.64;63.25;99200.37;4439429;32;35110;-82
2023/04/03 02:09:00;;;;;;;0.77;0.77;;;;;;;5.47;63.85;99195.97;4439652;32;33434;-83
2023/04/03 02:11:30;;;;;;;0.50;0.50;;;;;;;5.43;64.13;99196.78;4439677;32;34605;-84
2023/04/03 02:13:58;;;;;;;1.60;1.50;;;;;;;5.32;64.35;99201.00;4439409;32;35885;-83
2023/04/03 02:16:26;;;;;;;0.60;0.60;;;;;;;5.48;64.11;99202.84;4439715;32;34577;-83
2023/04/03 02:18:54;;;;;;;1.23;1.12;;;;;;;5.43;64.47;99199.38;4439361;32;33509;-84
2023/04/03 02:21:22;;;;;;;0.50;0.50;;;;;;;5.64;64.32;99200.37;4439652;32;33524;-82
2023/04/03 02:23:50;;;;;;;1.15;1.15;;;;;;;5.51;63.94;99200.31;4439237;32;34643;-84
2023/04/03 02:26:19;;;;;;;7.43;2.65;;;;;;;5.53;64.05;99210.66;4425454;32;34390;-84
2023/04/03 02:28:47;;;;;;;0.50;0.50;;;;;;;5.18;65.81;99207.78;4438281;32;33710;-87
2023/04/03 02:31:15;;;;;;;0.50;0.50;;;;;;;5.36;64.89;99200.19;4439221;32;33449;-83
2023/04/03 02:33:44;;;;;;;0.77;0.77;;;;;;;5.14;65.52;99209.47;4439502;32;34987;-83
2023/04/03 02:36:13;;;;;;;0.50;0.50;;;;;;;5.07;66.36;99203.38;4439541;32;34552;-83
2023/04/03 02:38:42;;;;;;;0.50;0.50;;;;;;;5.22;66.11;99199.22;4438233;32;34012;-82
2023/04/03 02:41:11;;;;;;;0.57;0.57;;;;;;;5.34;65.63;99204.47;4439290;32;34014;-84
2023/04/03 02:43:39;;;;;;;0.50;0.50;;;;;;;5.08;65.35;99207.72;4437951;32;35778;-84
2023/04/03 02:46:08;;;;;;;0.50;0.50;;;;;;;4.93;66.29;99208.41;4439172;32;34152;-84
2023/04/03 02:48:36;;;;;;;0.50;0.50;;;;;;;4.70;66.75;99212.47;4439266;32;33917;-84
2023/04/03 02:51:04;;;;;;;0.50;0.50;;;;;;;4.76;67.15;99215.09;4438069;32;33519;-84
2023/04/03 02:53:32;;;;;;;0.95;0.75;;;;;;;4.80;66.81;99209.16;4439339;32;35698;-83
2023/04/03 02:56:02;;;;;;;1.65;1.15;;;;;;;5.10;65.70;99216.31;4439392;32;34127;-83
2023/04/03 02:58:30;;;;;;;0.75;0.75;;;;;;;4.99;66.47;99207.59;4438957;32;33322;-83
2023/04/03 03:00:58;;;;;;;0.93;0.93;;;;;;;4.82;66.60;99219.47;4439265;32;33842;-83
2023/04/03 03:03:27;;;;;;;0.70;0.70;;;;;;;4.87;66.47;99212.62;4437808;32;35536;-83
2023/04/03 03:06:08;;;;;;;3.30;3.03;;;;;;;4.72;67.09;99214.22;4438896;32;34390;-84
2023/04/03 03:08:37;;;;;;;0.57;0.57;;;;;;;4.95;67.11;99208.44;4437941;32;33320;-83
2023/04/03 03:11:05;;;;;;;0.50;0.50;;;;;;;5.06;66.24;99219.72;4437759;32;33893;-82
2023/04/03 03:13:33;;;;;;;0.57;0.57;;;;;;;4.85;67.14;99219.50;4437636;32;35855;-83
2023/04/03 03:16:02;;;;;;;0.50;0.50;;;;;;;4.80;67.74;99210.84;4438751;32;34462;-83
2023/04/03 03:18:30;;;;;;;1.12;0.77;;;;;;;5.19;66.07;99214.66;4437357;32;33695;-83
2023/04/03 03:21:00;;;;;;;0.60;0.60;;;;;;;4.82;66.96;99212.59;4438842;32;34033;-84
2023/04/03 03:23:31;;;;;;;0.60;0.60;;;;;;;4.67;67.75;99208.13;4438024;32;34292;-84
2023/04/03 03:26:02;;;;;;;0.50;0.50;;;;;;;4.68;68.08;99211.59;4438888;32;34080;-84
2023/04/03 03:28:31;;;;;;;1.25;1.15;;;;;;;4.49;68.96;99216.53;4438712;32;33359;-83
2023/04/03 03:31:00;;;;;;;0.70;0.70;;;;;;;4.80;68.02;99210.84;4437466;32;34732;-83
2023/04/03 03:33:29;;;;;;;0.70;0.70;;;;;;;4.73;68.76;99210.78;4438849;32;34902;-83
2023/04/03 03:35:57;;;;;;;0.95;0.95;;;;;;;4.59;68.76;99207.22;4438620;32;34456;-82
2023/04/03 03:38:25;;;;;;;0.50;0.50;;;;;;;4.58;68.72;99202.03;4438581;32;33514;-84
2023/04/03 03:40:53;;;;;;;0.60;0.60;;;;;;;4.50;69.51;99207.06;4438757;32;34893;-84
2023/04/03 03:43:22;;;;;;;0.90;0.90;;;;;;;4.52;69.21;99201.09;4424963;32;34915;-84
2023/04/03 03:45:52;;;;;;;0.80;0.80;;;;;;;4.56;69.30;99196.84;4438452;32;34358;-82
2023/04/03 03:48:21;;;;;;;0.65;0.65;;;;;;;4.05;70.69;99197.94;4424695;32;31975;-84
2023/04/03 03:50:50;;;;;;;2.55;1.77;;;;;;;4.10;71.32;99191.16;4437446;32;34270;-82
2023/04/03 03:53:19;;;;;;;0.88;0.88;;;;;;;3.80;72.15;99195.91;4438257;32;35058;-85
2023/04/03 03:55:47;;;;;;;1.05;0.95;;;;;;;4.13;70.88;99201.47;4437145;32;33907;-85
2023/04/03 03:58:16;;;;;;;0.60;0.60;;;;;;;4.03;70.98;99202.22;4437398;32;33419;-82
2023/04/03 04:00:44;;;;;;;0.70;0.70;;;;;;;3.80;72.22;99193.31;4438174;32;34136;-84
2023/04/03 04:03:12;;;;;;;0.60;0.60;;;;;;;3.94;71.78;99193.50;4438435;32;34929;-85
2023/04/03 04:05:41;;;;;;;0.80;0.80;;;;;;;3.69;72.73;99194.00;4438328;32;34442;-82
2023/04/03 04:08:09;;;;;;;1.42;1.40;;;;;;;3.82;72.27;99195.06;4438091;32;34095;-82
2023/04/03 04:10:37;;;;;;;0.60;0.60;;;;;;;3.45;72.98;99190.22;4436850;32;33892;-83
2023/04/03 04:13:06;;;;;;;0.70;0.70;;;;;;;3.50;73.06;99195.47;4438311;32;34605;-83
2023/04/03 04:15:34;;;;;;;2.28;2.08;;;;;;;3.72;72.25;99194.91;4440552;32;34496;-84
2023/04/03 04:18:03;;;;;;;1.15;1.15;;;;;;;3.78;72.39;99183.84;4439947;32;33488;-83
2023/04/03 04:20:31;;;;;;;1.65;1.00;;;;;;;3.64;72.66;99205.97;4440377;32;33793;-82
2023/04/03 04:22:59;;;;;;;4.12;2.28;;;;;;;3.52;73.36;99199.78;4439280;32;34595;-83
2023/04/03 04:25:28;;;;;;;0.60;0.60;;;;;;;4.11;71.44;99213.47;4439280;32;34309;-83
2023/04/03 04:27:56;;;;;;;1.33;1.02;;;;;;;3.64;72.52;99216.28;4440164;32;33375;-83
2023/04/03 04:30:24;;;;;;;0.60;0.60;;;;;;;3.71;72.91;99218.09;4440311;32;33822;-84
2023/04/03 04:32:54;;;;;;;0.60;0.60;;;;;;;3.61;73.20;99212.78;4440346;32;35181;-84
2023/04/03 04:35:22;;;;;;;0.50;0.50;;;;;;;3.39;73.82;99216.75;4440098;32;34463;-83
2023/04/03 04:37:51;;;;;;;0.60;0.60;;;;;;;3.88;72.42;99213.16;4438948;32;33324;-83
2023/04/03 04:40:19;;;;;;;0.50;0.50;;;;;;;3.35;74.52;99221.81;4440163;32;33893;-85
2023/04/03 04:42:47;;;;;;;0.73;0.73;;;;;;;3.33;75.20;99229.50;4439186;32;35078;-83
2023/04/03 04:45:16;;;;;;;0.90;0.90;;;;;;;3.25;76.30;99230.22;4440033;32;34521;-85
2023/04/03 04:47:45;;;;;;;0.50;0.50;;;;;;;3.47;74.91;99219.44;4439154;32;33366;-82
2023/04/03 04:50:13;;;;;;;0.50;0.50;;;;;;;3.52;75.41;99227.25;4440016;32;33482;-84
2023/04/03 04:52:41;;;;;;;0.50;0.50;;;;;;;3.51;75.42;99221.22;4438764;32;35782;-83
2023/04/03 04:55:10;;;;;;;0.70;0.70;;;;;;;3.61;74.96;99217.94;4439920;32;34431;-83
2023/04/03 04:57:38;;;;;;;0.75;0.75;;;;;;;3.79;74.19;99229.34;4439904;32;34256;-82
2023/04/03 05:00:07;;;;;;;9.13;2.80;;;;;;;3.59;74.98;99223.91;4440084;32;33950;-82
2023/04/03 05:02:36;;;;;;;2.28;2.10;;;;;;;3.09;76.63;99235.12;4438704;32;35016;-83
2023/04/03 05:05:04;;;;;;;2.37;1.77;;;;;;;3.54;75.40;99233.28;4439877;32;34859;-82
2023/04/03 05:07:33;;;;;;;1.17;1.17;;;;;;;3.57;74.40;99234.19;4440197;32;33447;-83
2023/04/03 05:10:02;;;;;;;1.20;0.90;;;;;;;3.66;74.38;99240.34;4439874;32;34782;-83
2023/04/03 05:12:32;;;;;;;0.85;0.85;;;;;;;3.84;73.75;99239.72;4438980;32;34928;-85
2023/04/03 05:15:00;;;;;;;0.85;0.85;;;;;;;3.68;73.98;99241.22;4438576;32;34494;-85
2023/04/03 05:17:29;;;;;;;0.93;0.93;;;;;;;3.75;73.81;99245.63;4438679;32;33157;-82
2023/04/03 05:19:58;;;;;;;0.80;0.80;;;;;;;3.76;73.45;99242.22;4438791;32;34368;-83
2023/04/03 05:22:26;;;;;;;2.08;1.90;;;;;;;3.92;73.77;99248.44;4439863;32;34916;-86
2023/04/03 05:24:55;;;;;;;1.30;1.30;;;;;;;4.47;71.84;99258.62;4439255;32;34428;-84
2023/04/03 05:27:24;;;;;;;0.60;0.60;;;;;;;4.47;70.41;99254.34;4440002;32;33521;-84
2023/04/03 05:29:52;;;;;;;0.60;0.60;;;;;;;4.12;71.84;99249.56;4438873;32;34617;-85
2023/04/03 05:32:26;;;;;;;0.50;0.50;;;;;;;4.60;71.02;99249.31;4439835;32;35065;-84
2023/04/03 05:34:55;;;;;;;0.60;0.60;;;;;;;4.33;71.62;99256.72;4438670;32;34792;-84
2023/04/03 05:37:26;;;;;;;1.70;1.60;;;;;;;3.93;72.15;99256.16;4438802;32;33481;-83
2023/04/03 05:39:54;;;;;;;0.60;0.60;;;;;;;4.28;71.77;99258.38;4438732;32;33538;-83
2023/04/03 05:42:22;;;;;;;0.90;0.90;;;;;;;4.63;70.61;99259.69;4439841;32;34562;-83
2023/04/03 05:44:51;;;;;;;0.60;0.60;;;;;;;4.21;71.98;99261.72;4439508;32;35088;-83
2023/04/03 05:47:19;;;;;;;0.80;0.80;;;;;;;4.13;71.68;99265.91;4434874;32;152064;-82
2023/04/03 05:49:47;;;;;;;0.60;0.60;;;;;;;4.37;71.54;99261.06;4439909;32;34366;-82
2023/04/03 05:52:37;;;;;;;0.60;0.60;;;;;;;4.33;70.94;99263.59;4438458;32;34936;-83
2023/04/03 05:55:12;;;;;;;0.55;0.55;;;;;;;4.50;70.37;99266.38;4439847;32;35138;-82
2023/04/03 05:57:40;;;;;;;0.60;0.60;;;;;;;4.52;70.96;99265.56;4438468;32;33402;-82
2023/04/03 06:00:15;;;;;;;2.03;1.87;;;;;;;4.67;70.27;99264.88;4438564;32;33808;-83
2023/04/03 06:02:53;;;;;;;0.50;0.50;;;;;;;4.83;70.92;99254.75;4439378;32;35949;-83
2023/04/03 06:05:22;;;;;;;0.60;0.60;;;;;;;5.66;67.48;99248.63;4439434;32;34075;-83
2023/04/03 06:07:50;;;;;;;0.50;0.50;;;;;;;5.94;66.86;99259.16;4438313;32;33888;-83
2023/04/03 06:10:19;;;;;;;0.62;0.62;;;;;;;6.04;65.00;99254.97;4439521;32;34607;-83
2023/04/03 06:12:48;;;;;;;0.50;0.50;;;;;;;6.25;64.31;99249.03;4438200;32;33759;-83
2023/04/03 06:15:17;;;;;;;0.50;0.50;;;;;;;6.92;63.34;99256.19;4439394;32;34060;-83
2023/04/03 06:17:45;;;;;;;0.50;0.50;;;;;;;7.34;61.86;99253.66;4439049;32;33904;-83
2023/04/03 06:20:13;;;;;;;0.50;0.50;;;;;;;7.19;62.53;99251.94;4438208;32;33317;-83
2023/04/03 06:22:41;;;;;;;0.50;0.50;;;;;;;7.55;61.42;99260.59;4439643;32;35656;-83
2023/04/03 06:25:12;;;;;;;1.25;1.25;;;;;;;7.67;61.52;99260.59;4438186;32;34456;-82
2023/04/03 06:27:40;;;;;;;1.30;1.23;;;;;;;7.90;60.16;99262.31;4438219;32;33376;-82
2023/04/03 06:30:11;;;;;;;0.40;0.40;;;;;;;8.03;59.02;99256.25;4438184;32;33622;-84
2023/04/03 06:32:39;;;;;;;2.47;1.40;;;;;;;8.23;58.32;99255.34;4438197;32;35841;-84
2023/04/03 06:35:07;;;;;;;0.40;0.40;;;;;;;8.41;58.14;99265.66;4437998;32;34049;-83
2023/04/03 06:37:35;;;;;;;0.70;0.70;;;;;;;9.00;56.47;99257.62;4425143;32;33709;-84
2023/04/03 06:40:04;;;;;;;1.17;1.05;;;;;;;9.30;55.46;99254.00;4439164;32;33487;-84
2023/04/03 06:42:32;;;;;;;0.60;0.60;;;;;;;9.20;56.66;99266.19;4439263;32;34647;-84
2023/04/03 06:45:01;;;;;;;1.60;1.50;;;;;;;8.78;54.89;99273.31;4438324;32;34489;-84
2023/04/03 06:47:29;;;;;;;0.60;0.60;;;;;;;8.76;56.20;99277.66;4425412;32;33449;-83
2023/04/03 06:49:57;;;;;;;0.45;0.45;;;;;;;9.52;55.10;99283.28;4439174;32;33800;-84
2023/04/03 06:52:27;;;;;;;0.50;0.50;;;;;;;9.83;53.16;99278.69;4439105;32;35060;-85
2023/04/03 06:54:57;;;;;;;0.57;0.57;;;;;;;10.41;52.61;99279.03;4438003;32;32878;-84
2023/04/03 06:57:26;;;;;;;0.93;0.93;;;;;;;10.43;51.59;99283.34;4439069;32;33836;-84
2023/04/03 06:59:54;;;;;;;0.70;0.70;;;;;;;9.75;52.83;99292.66;4438934;32;33611;-86
2023/04/03 07:02:22;;;;;;;1.73;1.65;;;;;;;9.53;52.34;99302.31;4439068;32;35895;-84
2023/04/03 07:04:50;;;;;;;0.40;0.40;;;;;;;9.44;52.86;99298.06;4437801;32;34363;-83
2023/04/03 07:07:18;;;;;;;1.70;1.60;;;;;;;8.71;54.37;99289.81;4425218;32;34132;-84
2023/04/03 07:09:47;;;;;;;0.50;0.50;;;;;;;8.44;55.29;99296.81;4438879;32;33847;-83
2023/04/03 07:12:16;;;;;;;0.40;0.40;;;;;;;7.70;56.82;99296.03;4438826;32;34776;-85
2023/04/03 07:14:44;;;;;;;1.25;1.23;;;;;;;8.32;57.20;99297.66;4438692;32;34481;-84
2023/04/03 07:17:12;;;;;;;0.50;0.50;;;;;;;8.32;57.36;99302.00;4438876;32;33398;-84
2023/04/03 07:19:40;;;;;;;0.40;0.40;;;;;;;8.23;56.69;99302.03;4438249;32;34062;-83
2023/04/03 07:22:09;;;;;;;1.37;1.10;;;;;;;8.32;56.97;99296.81;4438709;32;35168;-83
2023/04/03 07:24:37;;;;;;;1.52;1.15;;;;;;;8.76;55.66;99297.59;4424952;32;34441;-83
2023/04/03 07:27:05;;;;;;;0.50;0.50;;;;;;;8.29;55.71;99296.81;4437514;32;32055;-83
2023/04/03 07:29:35;;;;;;;0.50;0.50;;;;;;;8.63;55.02;99301.94;4437681;32;32726;-84
2023/04/03 07:32:06;;;;;;;0.70;0.70;;;;;;;8.33;56.50;99302.00;4437448;32;33783;-85
2023/04/03 07:34:35;;;;;;;0.40;0.40;;;;;;;8.38;56.75;99299.37;4438635;32;34349;-88
2023/04/03 07:37:04;;;;;;;0.50;0.50;;;;;;;8.61;55.82;99298.50;4438532;32;33489;-84
2023/04/03 07:39:36;;;;;;;0.40;0.40;;;;;;;8.86;55.65;99294.09;4437798;32;33685;-85
2023/04/03 07:42:04;;;;;;;1.12;1.12;;;;;;;8.48;55.43;99305.47;4438314;32;35040;-84
2023/04/03 07:44:32;;;;;;;0.50;0.50;;;;;;;8.23;56.58;99296.84;4437356;32;33871;-85
2023/04/03 07:47:02;;;;;;;0.45;0.45;;;;;;;8.78;55.25;99301.88;4437309;32;33587;-85
2023/04/03 07:49:32;;;;;;;1.10;1.10;;;;;;;9.15;54.18;99296.50;4439415;32;34630;-84
2023/04/03 07:52:00;;;;;;;0.82;0.80;;;;;;;8.84;54.87;99301.88;4440517;32;34891;-84
2023/04/03 07:54:32;;;;;;;3.08;2.85;;;;;;;8.72;55.15;99305.38;4440388;32;34474;-84
2023/04/03 07:57:01;;;;;;;0.50;0.50;;;;;;;8.87;53.85;99301.84;4440692;32;34254;-85
2023/04/03 07:59:29;;;;;;;0.43;0.43;;;;;;;8.84;54.00;99307.06;4439137;32;34492;-84
2023/04/03 08:01:57;;;;;;;0.60;0.60;;;;;;;9.58;51.83;99310.97;4440199;32;35958;-84
2023/04/03 08:04:26;;;;;;;0.75;0.57;;;;;;;9.78;51.62;99313.44;4439112;32;34507;-83
2023/04/03 08:06:54;;;;;;;0.73;0.73;;;;;;;9.55;51.47;99311.84;4440230;32;32942;-84
2023/04/03 08:09:24;;;;;;;0.40;0.40;;;;;;;10.00;52.10;99308.91;4439196;32;33857;-84
2023/04/03 08:11:53;;;;;;;0.50;0.50;;;;;;;10.02;51.32;99308.03;4440186;32;34721;-83
2023/04/03 08:14:22;;;;;;;0.40;0.40;;;;;;;9.93;51.71;99309.81;4439223;32;34010;-84
2023/04/03 08:16:51;;;;;;;0.40;0.40;;;;;;;10.25;50.19;99310.41;4440201;32;33395;-84
2023/04/03 08:19:21;;;;;;;0.62;0.62;;;;;;;10.05;50.70;99312.31;4439936;32;34737;-85
2023/04/03 08:21:54;;;;;;;0.77;0.77;;;;;;;9.62;50.28;99318.75;4439999;32;35512;-84
2023/04/03 08:24:23;;;;;;;0.85;0.82;;;;;;;9.72;50.79;99323.88;4439132;32;34201;-84
2023/04/03 08:26:51;;;;;;;0.40;0.40;;;;;;;9.50;51.71;99324.03;4440231;32;34238;-84
2023/04/03 08:29:21;;;;;;;1.98;1.65;;;;;;;9.47;52.06;99324.03;4440126;32;33361;-85
2023/04/03 08:31:50;;;;;;;0.40;0.40;;;;;;;9.82;50.16;99330.72;4440193;32;35030;-84
2023/04/03 08:34:19;;;;;;;0.50;0.50;;;;;;;10.34;49.56;99313.81;4440069;32;34966;-85
2023/04/03 08:36:49;;;;;;;0.80;0.70;;;;;;;10.57;49.79;99317.03;4440176;32;33358;-84
2023/04/03 08:39:17;;;;;;;0.70;0.70;;;;;;;10.67;49.04;99323.00;4439992;32;33891;-84
2023/04/03 08:41:49;;;;;;;0.40;0.40;;;;;;;10.46;48.50;99318.03;4439908;32;35001;-85
2023/04/03 08:44:45;;;;;;;0.30;0.30;;;;;;;10.51;48.37;99321.44;4438915;32;34566;-85
2023/04/03 08:47:21;;;;;;;0.77;0.77;;;;;;;10.62;48.55;99324.78;4440097;32;33361;-85
2023/04/03 08:49:53;;;;;;;0.73;0.73;;;;;;;10.02;49.27;99321.03;4440080;32;33991;-84
2023/04/03 08:52:38;;;;;;;0.40;0.40;;;;;;;10.33;49.68;99317.31;4438942;32;35013;-84
2023/04/03 08:55:20;;;;;;;0.40;0.40;;;;;;;10.27;49.28;99327.72;4438753;32;34203;-85
2023/04/03 08:57:57;;;;;;;0.40;0.40;;;;;;;10.63;48.26;99316.09;4426467;32;33046;-85
2023/04/03 09:00:28;;;;;;;0.40;0.40;;;;;;;10.49;48.36;99316.25;4438700;32;33800;-84
2023/04/03 09:02:56;;;;;;;0.90;0.90;;;;;;;10.96;48.74;99325.25;4426225;32;34583;-85
2023/04/03 09:05:30;;;;;;;0.37;0.37;;;;;;;10.92;46.72;99327.91;4438776;32;34774;-85
2023/04/03 09:08:25;;;;;;;0.60;0.60;;;;;;;11.31;47.05;99323.06;4439958;32;33636;-84
2023/04/03 09:11:29;;;;;;;0.68;0.68;;;;;;;10.93;46.06;99324.44;4440148;32;34277;-84
2023/04/03 09:14:01;;;;;;;0.60;0.60;;;;;;;10.97;46.79;99326.12;4438493;32;35267;-88
2023/04/03 09:16:53;;;;;;;0.40;0.40;;;;;;;11.30;46.03;99329.16;4439852;32;34416;-85
2023/04/03 09:19:38;;;;;;;0.40;0.40;;;;;;;10.96;48.57;99329.63;4439450;32;34233;-85
2023/04/03 09:22:21;;;;;;;0.45;0.45;;;;;;;10.91;47.57;99334.00;4439673;32;34737;-84
2023/04/03 09:24:59;;;;;;;0.40;0.40;;;;;;;11.17;47.22;99329.34;4438661;32;35559;-85
2023/04/03 09:27:27;;;;;;;0.30;0.30;;;;;;;11.70;46.79;99333.78;4438658;32;34459;-85
2023/04/03 09:29:56;;;;;;;0.50;0.50;;;;;;;11.18;44.29;99335.41;4439740;32;34243;-85
2023/04/03 09:32:28;;;;;;;0.30;0.30;;;;;;;11.89;44.73;99331.75;4439736;32;33968;-84
2023/04/03 09:35:04;;;;;;;0.47;0.47;;;;;;;12.08;44.99;99335.81;4438635;32;35024;-85
2023/04/03 09:37:51;;;;;;;0.43;0.43;;;;;;;13.22;43.40;99333.62;4439692;32;35153;-85
2023/04/03 09:40:35;;;;;;;0.50;0.50;;;;;;;11.80;44.37;99337.97;4439016;32;33423;-85
2023/04/03 09:43:28;;;;;;;0.30;0.30;;;;;;;12.76;42.63;99338.94;4439551;32;33928;-84
2023/04/03 09:46:28;;;;;;;0.30;0.30;;;;;;;13.36;42.87;99330.75;4438506;32;35739;-88
2023/04/03 09:49:02;;;;;;;0.40;0.40;;;;;;;14.81;40.53;99324.50;4438443;32;34310;-85
2023/04/03 09:51:33;;;;;;;0.32;0.32;;;;;;;14.90;40.07;99315.53;4438397;32;33162;-84
2023/04/03 09:54:24;;;;;;;0.35;0.32;;;;;;;14.53;38.49;99320.00;4439581;32;33891;-85
2023/04/03 09:57:02;;;;;;;0.62;0.62;;;;;;;13.53;39.01;99324.25;4439588;32;34866;-86
2023/04/03 09:59:31;;;;;;;0.30;0.30;;;;;;;14.52;39.31;99328.75;4438413;32;34108;-85
2023/04/03 10:02:42;;;;;;;0.40;0.40;;;;;;;14.35;39.08;99317.88;4438348;32;33704;-85
2023/04/03 10:05:34;;;;;;;0.65;0.65;;;;;;;13.87;38.80;99326.94;4425733;32;34105;-85
2023/04/03 10:08:09;;;;;;;2.10;1.75;;;;;;;12.86;42.56;99322.19;4438375;32;34862;-85
2023/04/03 10:10:38;;;;;;;0.52;0.52;;;;;;;13.35;39.89;99323.78;4439389;32;35103;-85
2023/04/03 10:13:11;;;;;;;0.43;0.43;;;;;;;12.88;40.12;99323.00;4437768;32;33104;-85
2023/04/03 10:15:55;;;;;;;0.50;0.50;;;;;;;12.52;41.73;99320.22;4438391;32;33911;-85
2023/04/03 10:18:46;;;;;;;0.30;0.30;;;;;;;11.99;42.98;99320.31;4438975;32;35721;-85
2023/04/03 10:21:30;;;;;;;0.40;0.40;;;;;;;12.68;41.12;99326.03;4438236;32;34532;-85
2023/04/03 10:24:14;;;;;;;0.65;0.65;;;;;;;12.37;41.28;99320.50;4439402;32;33068;-86
2023/04/03 10:27:00;;;;;;;0.30;0.30;;;;;;;11.69;43.46;99319.88;4438248;32;33915;-85
2023/04/03 10:29:54;;;;;;;0.50;0.50;;;;;;;11.79;41.52;99328.44;4438210;32;34598;-85
2023/04/03 10:32:43;;;;;;;0.30;0.30;;;;;;;11.45;44.19;99326.31;4438535;32;35069;-85
2023/04/03 10:35:36;;;;;;;0.30;0.30;;;;;;;11.58;43.33;99325.25;4438161;32;33437;-88
2023/04/03 10:38:29;;;;;;;0.30;0.30;;;;;;;11.37;42.50;99322.97;4438123;32;33786;-85
2023/04/03 10:41:07;;;;;;;1.12;0.80;;;;;;;11.31;43.43;99325.66;4439258;32;35774;-85
2023/04/03 10:43:47;;;;;;;0.40;0.40;;;;;;;11.89;41.37;99310.88;4438170;32;34331;-85
2023/04/03 10:46:32;;;;;;;0.40;0.40;;;;;;;11.36;41.59;99316.91;4439224;32;33581;-85
2023/04/03 10:49:13;;;;;;;1.70;1.60;;;;;;;10.85;44.37;99321.06;4439215;32;34315;-85
2023/04/03 10:51:46;;;;;;;0.40;0.40;;;;;;;10.68;45.35;99313.47;4439619;32;34588;-86
2023/04/03 10:54:26;;;;;;;1.37;1.27;;;;;;;11.56;43.82;99316.59;4437946;32;34322;-87
2023/04/03 10:57:01;;;;;;;0.30;0.30;;;;;;;11.32;44.43;99315.22;4438075;32;33556;-84
2023/04/03 10:59:46;;;;;;;0.52;0.52;;;;;;;10.80;44.71;99311.56;4438045;32;34823;-85
2023/04/03 11:02:26;;;;;;;0.30;0.30;;;;;;;11.27;44.11;99319.62;4437938;32;36014;-85
2023/04/03 11:05:04;;;;;;;0.37;0.37;;;;;;;11.04;45.09;99317.34;4438000;32;34354;-86
2023/04/03 11:07:43;;;;;;;0.40;0.40;;;;;;;10.97;42.55;99311.34;4438195;32;34226;-85
2023/04/03 11:10:23;;;;;;;0.40;0.40;;;;;;;11.12;42.80;99310.28;4437895;32;34071;-85
2023/04/03 11:13:02;;;;;;;0.40;0.40;;;;;;;10.93;43.59;99316.63;4438842;32;35418;-85
2023/04/03 11:15:33;;;;;;;0.50;0.50;;;;;;;10.67;43.73;99311.72;4437856;32;34100;-85
2023/04/03 11:18:08;;;;;;;0.40;0.40;;;;;;;10.56;43.05;99310.09;4437579;32;33466;-85
2023/04/03 11:20:39;;;;;;;0.50;0.50;;;;;;;9.89;44.33;99306.38;4437781;32;33793;-85
2023/04/03 11:23:27;;;;;;;0.45;0.45;;;;;;;10.47;44.09;99310.19;4436226;32;35143;-84
2023/04/03 11:26:15;;;;;;;0.40;0.40;;;;;;;10.44;44.36;99300.66;4438646;32;34460;-85
2023/04/03 11:28:44;;;;;;;0.40;0.40;;;;;;;10.51;44.06;99298.00;4438837;32;33452;-85
2023/04/03 11:31:20;;;;;;;0.35;0.35;;;;;;;10.72;44.62;99296.91;4438570;32;33511;-84
2023/04/03 11:34:13;;;;;;;0.40;0.40;;;;;;;10.50;43.77;99293.66;4438779;32;35782;-85
2023/04/03 11:36:55;;;;;;;0.40;0.40;;;;;;;10.65;43.92;99292.66;4437622;32;34076;-83
2023/04/03 11:39:30;;;;;;;0.40;0.40;;;;;;;10.39;45.17;99285.97;4437492;32;33457;-85
2023/04/03 11:42:38;;;;;;;0.40;0.40;;;;;;;10.82;43.60;99286.34;4437381;32;33887;-84
2023/04/03 11:45:26;;;;;;;0.40;0.40;;;;;;;10.92;42.83;99283.63;4429879;32;34948;-84
2023/04/03 11:48:22;;;;;;;0.30;0.30;;;;;;;10.74;42.70;99288.19;4438462;32;34454;-85
2023/04/03 11:50:52;;;;;;;0.40;0.40;;;;;;;10.81;42.27;99287.22;4423693;32;32893;-84
2023/04/03 11:53:34;;;;;;;0.50;0.50;;;;;;;11.13;42.15;99285.94;4437193;32;33600;-85
2023/04/03 11:56:06;;;;;;;1.37;0.50;;;;;;;10.87;42.26;99288.03;4437221;32;35552;-85
2023/04/03 11:59:13;;;;;;;0.40;0.40;;;;;;;11.00;42.48;99289.59;4437237;32;32861;-85
2023/04/03 12:01:47;;;;;;;0.40;0.40;;;;;;;10.90;41.69;99281.03;4438137;32;33616;-85
2023/04/03 12:04:17;;;;;;;0.95;0.82;;;;;;;10.01;44.07;99279.41;4437124;32;34099;-84